createdAt,value
2018-07-03T00:00:41.452Z,0
2018-07-03T00:01:43.115Z,0
2018-07-03T00:02:44.766Z,0
2018-07-03T00:03:46.421Z,0
2018-07-03T00:04:48.067Z,0
2018-07-03T00:05:49.729Z,0
2018-07-03T00:06:51.375Z,0
2018-07-03T00:07:53.036Z,0
2018-07-03T00:08:54.683Z,0
2018-07-03T00:09:56.339Z,0
2018-07-03T00:10:57.999Z,0
2018-07-03T00:11:59.644Z,0
2018-07-03T00:13:01.341Z,0
2018-07-03T00:14:02.991Z,0
2018-07-03T00:15:04.632Z,0
2018-07-03T00:16:06.296Z,0
2018-07-03T00:17:07.956Z,0
2018-07-03T00:18:09.604Z,0
2018-07-03T00:19:11.258Z,0
2018-07-03T00:20:12.904Z,0
2018-07-03T00:21:15.216Z,0
2018-07-03T00:22:16.872Z,0
2018-07-03T00:23:18.522Z,0
2018-07-03T00:24:20.177Z,0
2018-07-03T00:25:21.829Z,0
2018-07-03T00:26:23.483Z,0
2018-07-03T00:27:25.132Z,0
2018-07-03T00:28:29.848Z,0
2018-07-03T00:29:31.493Z,0
2018-07-03T00:30:33.150Z,0
2018-07-03T00:31:34.810Z,0
2018-07-03T00:32:36.472Z,0
2018-07-03T00:33:38.122Z,0
2018-07-03T00:34:39.776Z,0
2018-07-03T00:35:41.439Z,0
2018-07-03T00:36:43.086Z,0
2018-07-03T00:37:44.743Z,0
2018-07-03T00:39:01.448Z,0
2018-07-03T00:40:03.098Z,0
2018-07-03T00:41:04.767Z,0
2018-07-03T00:42:06.939Z,0
2018-07-03T00:43:08.598Z,0
2018-07-03T00:44:10.255Z,0
2018-07-03T00:45:11.906Z,0
2018-07-03T00:46:13.564Z,0
2018-07-03T00:47:15.216Z,0
2018-07-03T00:48:16.869Z,0
2018-07-03T00:49:18.520Z,0
2018-07-03T00:50:20.173Z,0
2018-07-03T00:51:21.828Z,0
2018-07-03T00:52:23.488Z,0
2018-07-03T00:53:25.157Z,0
2018-07-03T00:54:26.805Z,0
2018-07-03T00:55:31.898Z,0
2018-07-03T00:56:33.438Z,0
2018-07-03T00:57:35.095Z,0
2018-07-03T00:58:36.747Z,0
2018-07-03T00:59:38.401Z,0
2018-07-03T01:00:40.055Z,0
2018-07-03T01:01:41.718Z,0
2018-07-03T01:02:43.369Z,0
2018-07-03T01:03:45.026Z,0
2018-07-03T01:04:46.664Z,0
2018-07-03T01:05:48.323Z,0
2018-07-03T01:06:49.978Z,0
2018-07-03T01:07:51.630Z,0
2018-07-03T01:08:53.296Z,0
2018-07-03T01:09:54.939Z,0
2018-07-03T01:10:56.598Z,0
2018-07-03T01:12:15.402Z,0
2018-07-03T01:13:17.064Z,0
2018-07-03T01:14:18.718Z,0
2018-07-03T01:15:20.390Z,0
2018-07-03T01:16:22.041Z,0
2018-07-03T01:17:23.703Z,0
2018-07-03T01:18:25.381Z,0
2018-07-03T01:19:58.863Z,0
2018-07-03T01:21:00.515Z,0
2018-07-03T01:22:02.183Z,0
2018-07-03T01:23:03.833Z,0
2018-07-03T01:24:05.518Z,0
2018-07-03T01:25:07.166Z,0
2018-07-03T01:26:08.824Z,0
2018-07-03T01:28:36.971Z,0
2018-07-03T01:29:38.635Z,0
2018-07-03T01:30:40.292Z,0
2018-07-03T01:31:41.951Z,0
2018-07-03T01:32:43.604Z,0
2018-07-03T01:33:45.260Z,0
2018-07-03T01:34:46.916Z,0
2018-07-03T01:35:48.572Z,0
2018-07-03T01:36:50.226Z,0
2018-07-03T01:37:51.889Z,0
2018-07-03T01:38:53.554Z,0
2018-07-03T01:39:55.214Z,0
2018-07-03T01:40:56.867Z,0
2018-07-03T01:41:58.511Z,0
2018-07-03T01:43:00.168Z,0
2018-07-03T01:44:01.818Z,0
2018-07-03T01:45:03.468Z,0
2018-07-03T01:46:07.359Z,0
2018-07-03T01:47:09.135Z,0
2018-07-03T01:48:10.788Z,0
2018-07-03T01:49:12.431Z,0
2018-07-03T01:50:14.113Z,0
2018-07-03T01:51:15.750Z,0
2018-07-03T01:52:17.407Z,0
2018-07-03T01:53:19.061Z,0
2018-07-03T01:54:20.710Z,0
2018-07-03T02:01:04.120Z,0
2018-07-03T02:02:05.807Z,0
2018-07-03T02:03:07.450Z,0
2018-07-03T02:04:09.092Z,0
2018-07-03T02:05:10.743Z,0
2018-07-03T02:06:12.392Z,0
2018-07-03T02:07:14.045Z,0
2018-07-03T06:01:53.028Z,18144
2018-07-03T06:02:54.729Z,18432
2018-07-03T06:04:46.764Z,19232
2018-07-03T06:05:48.444Z,20032
2018-07-03T06:06:50.124Z,21664
2018-07-03T06:07:51.969Z,25344
2018-07-03T06:08:53.632Z,29888
2018-07-03T06:09:55.298Z,32096
2018-07-03T06:10:56.964Z,33664
2018-07-03T06:11:58.631Z,34368
2018-07-03T06:13:00.339Z,35744
2018-07-03T06:14:01.980Z,39840
2018-07-03T06:15:03.691Z,40192
2018-07-03T06:16:05.410Z,40960
2018-07-03T06:17:07.072Z,41472
2018-07-03T06:18:08.753Z,42112
2018-07-03T06:19:10.424Z,42176
2018-07-03T06:20:12.110Z,43584
2018-07-03T06:21:13.787Z,45248
2018-07-03T06:22:15.455Z,47104
2018-07-03T06:23:17.149Z,47168
2018-07-03T06:24:18.826Z,47456
2018-07-03T06:25:20.502Z,49920
2018-07-03T06:26:22.188Z,50016
2018-07-03T06:27:23.871Z,50464
2018-07-03T06:28:25.560Z,50016
2018-07-03T06:29:27.223Z,48928
2018-07-03T06:30:28.892Z,46656
2018-07-03T06:31:30.570Z,45120
2018-07-03T06:32:32.232Z,46368
2018-07-03T06:33:33.906Z,50432
2018-07-03T06:34:35.584Z,52672
2018-07-03T06:35:37.258Z,54880
2018-07-03T06:36:38.927Z,56160
2018-07-03T06:37:40.649Z,56640
2018-07-03T06:38:42.266Z,57472
2018-07-03T06:39:44.469Z,58816
2018-07-03T06:40:46.139Z,59552
2018-07-03T06:41:47.995Z,59456
2018-07-03T06:42:49.475Z,58560
2018-07-03T06:43:51.160Z,60704
2018-07-03T06:44:52.850Z,61536
2018-07-03T06:45:54.504Z,61280
2018-07-03T06:46:56.177Z,58912
2018-07-03T06:47:57.854Z,55232
2018-07-03T06:48:59.519Z,54496
2018-07-03T06:50:01.210Z,61120
2018-07-03T06:51:02.884Z,65248
2018-07-03T06:52:04.556Z,65120
2018-07-03T06:53:06.258Z,65024
2018-07-03T06:54:07.937Z,66528
2018-07-03T06:55:09.616Z,66656
2018-07-03T06:56:11.303Z,68128
2018-07-03T06:57:12.979Z,69152
2018-07-03T06:58:14.643Z,66976
2018-07-03T06:59:16.317Z,61536
2018-07-03T07:00:17.990Z,52288
2018-07-03T07:01:19.661Z,55072
2018-07-03T07:02:21.338Z,64640
2018-07-03T07:03:23.010Z,66272
2018-07-03T07:04:24.687Z,71296
2018-07-03T07:05:26.381Z,73216
2018-07-03T07:06:28.055Z,74592
2018-07-03T07:07:29.732Z,76064
2018-07-03T07:08:31.481Z,76928
2018-07-03T07:09:33.205Z,76000
2018-07-03T07:10:34.800Z,76736
2018-07-03T07:11:36.485Z,78272
2018-07-03T07:12:38.156Z,74400
2018-07-03T07:13:39.822Z,75840
2018-07-03T07:14:41.499Z,81248
2018-07-03T07:15:43.174Z,82912
2018-07-03T07:16:44.846Z,82784
2018-07-03T07:17:46.515Z,81792
2018-07-03T07:18:48.194Z,84704
2018-07-03T07:19:49.875Z,86656
2018-07-03T07:20:51.549Z,85504
2018-07-03T07:21:53.214Z,86912
2018-07-03T07:22:54.892Z,88736
2018-07-03T07:23:56.594Z,87968
2018-07-03T07:24:58.296Z,87712
2018-07-03T07:25:59.964Z,89568
2018-07-03T07:27:01.643Z,91232
2018-07-03T07:28:03.320Z,89088
2018-07-03T07:29:04.989Z,90368
2018-07-03T07:30:06.669Z,85600
2018-07-03T07:31:08.347Z,61696
2018-07-03T07:32:10.034Z,50496
2018-07-03T07:33:11.712Z,60448
2018-07-03T07:35:23.124Z,85184
2018-07-03T07:36:24.798Z,91104
2018-07-03T07:38:16.787Z,94336
2018-07-03T07:39:18.453Z,95200
2018-07-03T07:40:20.135Z,95456
2018-07-03T07:41:21.820Z,94080
2018-07-03T07:42:23.494Z,91488
2018-07-03T07:43:25.170Z,92800
2018-07-03T07:44:26.847Z,92672
2018-07-03T07:45:28.526Z,91136
2018-07-03T07:46:30.367Z,92256
2018-07-03T07:47:32.032Z,93152
2018-07-03T07:48:33.710Z,90976
2018-07-03T07:49:35.615Z,87968
2018-07-03T07:50:37.293Z,87584
2018-07-03T07:51:39.185Z,88608
2018-07-03T07:52:40.858Z,85248
2018-07-03T07:53:42.551Z,87488
2018-07-03T07:54:44.669Z,88960
2018-07-03T07:55:46.585Z,83200
2018-07-03T07:56:48.271Z,81376
2018-07-03T07:57:49.993Z,85440
2018-07-03T07:58:51.703Z,87072
2018-07-03T07:59:53.449Z,86016
2018-07-03T08:00:55.116Z,82528
2018-07-03T08:01:56.798Z,79936
2018-07-03T08:02:58.444Z,82528
2018-07-03T08:04:00.123Z,84352
2018-07-03T08:05:01.811Z,87584
2018-07-03T08:06:03.485Z,88576
2018-07-03T08:07:05.161Z,88896
2018-07-03T08:08:06.843Z,85856
2018-07-03T08:09:08.530Z,80864
2018-07-03T08:10:10.195Z,84448
2018-07-03T08:11:11.868Z,91296
2018-07-03T08:12:13.538Z,90688
2018-07-03T08:13:15.240Z,88416
2018-07-03T08:14:16.891Z,84768
2018-07-03T08:15:18.584Z,83552
2018-07-03T08:16:20.254Z,84128
2018-07-03T08:17:21.973Z,86816
2018-07-03T08:18:23.660Z,86784
2018-07-03T08:19:25.321Z,88608
2018-07-03T08:20:27.004Z,88928
2018-07-03T08:21:28.691Z,90400
2018-07-03T08:22:30.367Z,89664
2018-07-03T08:23:32.039Z,88000
2018-07-03T08:24:33.705Z,90688
2018-07-03T08:25:35.442Z,89184
2018-07-03T08:26:37.144Z,83456
2018-07-03T08:27:38.822Z,83680
2018-07-03T08:28:40.515Z,87808
2018-07-03T08:29:42.178Z,90144
2018-07-03T08:30:43.901Z,89568
2018-07-03T08:31:45.526Z,90496
2018-07-03T08:32:47.201Z,94912
2018-07-03T08:33:48.981Z,99232
2018-07-03T08:34:50.732Z,98112
2018-07-03T08:35:52.425Z,97184
2018-07-03T08:36:54.106Z,97568
2018-07-03T08:37:55.818Z,99808
2018-07-03T08:38:57.476Z,102720
2018-07-03T08:39:59.157Z,104736
2018-07-03T08:41:00.844Z,106016
2018-07-03T08:42:02.521Z,104800
2018-07-03T08:43:04.205Z,104832
2018-07-03T08:44:05.909Z,105120
2018-07-03T08:45:07.602Z,107520
2018-07-03T08:46:09.298Z,108992
2018-07-03T08:47:10.974Z,111392
2018-07-03T08:48:12.649Z,113536
2018-07-03T08:49:14.346Z,112576
2018-07-03T08:50:16.018Z,113760
2018-07-03T08:51:17.740Z,114880
2018-07-03T08:52:19.413Z,115776
2018-07-03T08:53:21.108Z,114432
2018-07-03T08:54:22.784Z,115040
2018-07-03T08:55:24.474Z,118496
2018-07-03T08:56:26.144Z,120640
2018-07-03T08:57:27.825Z,122368
2018-07-03T08:58:29.539Z,124768
2018-07-03T08:59:31.191Z,124448
2018-07-03T09:00:32.894Z,126432
2018-07-03T09:01:34.620Z,130336
2018-07-03T09:02:36.307Z,131392
2018-07-03T09:03:38.035Z,131936
2018-07-03T09:04:39.721Z,131488
2018-07-03T09:05:41.398Z,134016
2018-07-03T09:06:43.072Z,134624
2018-07-03T09:07:44.757Z,132000
2018-07-03T09:08:46.436Z,133440
2018-07-03T09:09:48.184Z,139360
2018-07-03T09:10:49.974Z,137472
2018-07-03T09:11:51.914Z,138496
2018-07-03T09:12:53.544Z,140352
2018-07-03T09:13:55.222Z,140352
2018-07-03T09:14:56.914Z,137888
2018-07-03T09:15:58.593Z,137632
2018-07-03T09:17:00.296Z,139360
2018-07-03T09:18:02.020Z,140448
2018-07-03T09:19:03.669Z,141376
2018-07-03T09:20:05.337Z,140928
2018-07-03T09:21:07.136Z,140864
2018-07-03T09:22:08.813Z,139424
2018-07-03T09:23:10.497Z,136512
2018-07-03T09:24:12.187Z,138208
2018-07-03T09:25:17.354Z,140480
2018-07-03T09:26:19.018Z,142368
2018-07-03T09:27:20.712Z,143232
2018-07-03T09:28:22.385Z,140960
2018-07-03T09:29:24.063Z,138592
2018-07-03T09:30:25.788Z,138848
2018-07-03T09:31:27.426Z,139232
2018-07-03T09:32:29.113Z,140288
2018-07-03T09:33:30.837Z,140288
2018-07-03T09:34:32.516Z,135104
2018-07-03T09:35:34.204Z,132640
2018-07-03T09:36:35.885Z,132576
2018-07-03T09:37:37.566Z,132448
2018-07-03T09:38:39.249Z,134304
2018-07-03T09:39:40.937Z,135680
2018-07-03T09:40:42.634Z,133344
2018-07-03T09:41:44.315Z,131872
2018-07-03T09:42:46.002Z,131168
2018-07-03T09:43:47.683Z,130784
2018-07-03T09:44:49.365Z,128704
2018-07-03T09:45:51.052Z,124960
2018-07-03T09:46:52.740Z,122496
2018-07-03T09:47:54.441Z,121376
2018-07-03T09:48:56.142Z,123232
2018-07-03T09:49:57.834Z,122208
2018-07-03T09:50:59.496Z,119200
2018-07-03T09:52:01.171Z,116896
2018-07-03T09:53:02.866Z,116480
2018-07-03T09:54:04.551Z,116000
2018-07-03T09:55:06.362Z,112992
2018-07-03T10:01:26.465Z,101792
2018-07-03T10:02:28.124Z,100416
2018-07-03T10:03:29.803Z,103008
2018-07-03T10:04:31.681Z,101728
2018-07-03T10:05:33.351Z,99552
2018-07-03T10:06:35.028Z,96768
2018-07-03T10:07:36.710Z,98272
2018-07-03T10:08:38.405Z,98688
2018-07-03T10:09:40.107Z,100160
2018-07-03T10:10:41.789Z,98176
2018-07-03T10:11:43.469Z,98304
2018-07-03T10:12:46.146Z,96224
2018-07-03T10:13:47.823Z,93344
2018-07-03T10:14:49.507Z,92288
2018-07-03T10:15:51.199Z,93088
2018-07-03T10:16:52.898Z,91168
2018-07-03T10:17:54.574Z,90816
2018-07-03T10:18:56.308Z,88864
2018-07-03T10:19:57.948Z,95072
2018-07-03T10:20:59.628Z,96384
2018-07-03T10:22:01.299Z,95200
2018-07-03T10:23:02.994Z,92832
2018-07-03T10:24:04.660Z,93472
2018-07-03T10:25:06.354Z,95680
2018-07-03T10:26:08.037Z,97888
2018-07-03T10:27:09.715Z,97536
2018-07-03T10:28:11.393Z,97248
2018-07-03T10:29:13.065Z,98912
2018-07-03T10:30:14.751Z,95584
2018-07-03T10:31:16.471Z,97184
2018-07-03T10:32:18.116Z,97920
2018-07-03T10:33:19.801Z,97376
2018-07-03T10:34:21.475Z,98784
2018-07-03T10:35:23.168Z,99872
2018-07-03T10:36:24.845Z,104416
2018-07-03T10:37:26.534Z,104384
2018-07-03T10:38:28.229Z,105088
2018-07-03T10:39:29.905Z,108928
2018-07-03T10:40:31.594Z,110080
2018-07-03T10:41:33.279Z,110304
2018-07-03T10:42:34.959Z,111744
2018-07-03T10:43:36.640Z,111392
2018-07-03T10:44:38.323Z,113024
2018-07-03T10:45:40.057Z,115456
2018-07-03T10:46:41.756Z,115968
2018-07-03T10:47:43.442Z,119520
2018-07-03T10:48:45.169Z,120992
2018-07-03T10:49:46.799Z,122112
2018-07-03T10:50:48.495Z,122816
2018-07-03T10:51:50.180Z,125856
2018-07-03T10:52:51.858Z,125632
2018-07-03T10:53:53.532Z,127840
2018-07-03T10:54:55.213Z,129408
2018-07-03T10:55:56.925Z,128704
2018-07-03T10:56:58.611Z,128256
2018-07-03T10:58:00.310Z,127552
2018-07-03T10:59:01.987Z,126496
2018-07-03T11:00:03.691Z,125728
2018-07-03T11:01:05.410Z,126304
2018-07-03T11:02:07.087Z,130272
2018-07-03T11:03:08.769Z,137664
2018-07-03T11:04:10.501Z,138624
2018-07-03T11:05:12.179Z,136736
2018-07-03T11:06:13.878Z,134240
2018-07-03T11:07:15.555Z,135200
2018-07-03T11:08:17.235Z,139840
2018-07-03T11:09:18.913Z,138496
2018-07-03T11:10:20.588Z,134080
2018-07-03T11:11:22.282Z,132128
2018-07-03T11:12:23.962Z,139232
2018-07-03T11:13:25.656Z,143392
2018-07-03T11:14:27.354Z,142880
2018-07-03T11:15:29.035Z,141920
2018-07-03T11:16:30.768Z,141408
2018-07-03T11:17:32.404Z,142592
2018-07-03T11:18:34.091Z,145120
2018-07-03T11:19:35.822Z,149472
2018-07-03T11:20:37.488Z,145216
2018-07-03T11:21:39.182Z,143776
2018-07-03T11:22:40.858Z,146592
2018-07-03T11:23:42.553Z,145344
2018-07-03T11:24:44.227Z,140832
2018-07-03T11:25:45.907Z,0
2018-07-03T11:26:47.592Z,151136
2018-07-03T11:27:49.294Z,157440
2018-07-03T11:28:50.989Z,161024
2018-07-03T11:29:52.725Z,157984
2018-07-03T11:30:54.394Z,155136
2018-07-03T11:31:56.075Z,156928
2018-07-03T11:32:57.774Z,154112
2018-07-03T11:33:59.488Z,148288
2018-07-03T11:35:01.152Z,146976
2018-07-03T11:36:02.823Z,150592
2018-07-03T11:37:04.512Z,155744
2018-07-03T11:38:06.273Z,158560
2018-07-03T11:39:07.896Z,156736
2018-07-03T11:40:09.580Z,156672
2018-07-03T11:41:11.264Z,159744
2018-07-03T11:42:12.945Z,159968
2018-07-03T11:43:14.633Z,155744
2018-07-03T11:44:16.311Z,153056
2018-07-03T11:45:17.998Z,148736
2018-07-03T11:46:19.673Z,152448
2018-07-03T11:47:21.353Z,155584
2018-07-03T11:48:23.035Z,151008
2018-07-03T11:49:24.720Z,145696
2018-07-03T11:50:26.413Z,142912
2018-07-03T11:51:28.099Z,142720
2018-07-03T11:52:29.784Z,137760
2018-07-03T11:53:31.506Z,139392
2018-07-03T11:54:33.212Z,139712
2018-07-03T11:55:34.930Z,138208
2018-07-03T11:56:36.619Z,140928
2018-07-03T11:57:38.305Z,139648
2018-07-03T11:58:40.037Z,137440
2018-07-03T11:59:41.713Z,141920
2018-07-03T12:00:43.398Z,139136
2018-07-03T12:01:45.084Z,133088
2018-07-03T12:02:46.753Z,129728
2018-07-03T12:03:48.445Z,126784
2018-07-03T12:04:50.131Z,125312
2018-07-03T12:05:51.802Z,118560
2018-07-03T12:06:53.507Z,107456
2018-07-03T12:07:55.187Z,110016
2018-07-03T12:08:56.896Z,79520
2018-07-03T12:09:58.549Z,107872
2018-07-03T12:11:00.226Z,98656
2018-07-03T12:12:01.916Z,117952
2018-07-03T12:13:03.655Z,116352
2018-07-03T12:14:05.327Z,114016
2018-07-03T12:15:07.021Z,112384
2018-07-03T12:16:08.709Z,114240
2018-07-03T12:17:10.386Z,116640
2018-07-03T12:18:12.186Z,111744
2018-07-03T12:19:14.761Z,112160
2018-07-03T12:20:16.485Z,116896
2018-07-03T12:21:18.220Z,116960
2018-07-03T12:22:19.924Z,112128
2018-07-03T12:23:21.616Z,102816
2018-07-03T12:24:23.308Z,97664
2018-07-03T12:25:24.986Z,93344
2018-07-03T12:26:26.676Z,95136
2018-07-03T12:27:28.370Z,96992
2018-07-03T12:28:30.039Z,97408
2018-07-03T12:29:31.730Z,100000
2018-07-03T12:30:33.404Z,99584
2018-07-03T12:31:35.072Z,99360
2018-07-03T12:32:36.756Z,101280
2018-07-03T12:33:38.437Z,94976
2018-07-03T12:34:40.111Z,96416
2018-07-03T12:35:41.801Z,99712
2018-07-03T12:36:43.527Z,97632
2018-07-03T12:37:45.175Z,96704
2018-07-03T12:38:46.855Z,97984
2018-07-03T12:39:48.538Z,98272
2018-07-03T12:40:50.221Z,95392
2018-07-03T12:41:51.911Z,92576
2018-07-03T12:42:53.670Z,91616
2018-07-03T12:43:56.150Z,91968
2018-07-03T12:44:57.823Z,91136
2018-07-03T12:45:59.512Z,87712
2018-07-03T12:47:01.230Z,91264
2018-07-03T12:48:02.910Z,96736
2018-07-03T12:49:04.588Z,99616
2018-07-03T12:50:06.292Z,99296
2018-07-03T12:51:07.981Z,98080
2018-07-03T12:52:09.668Z,98688
2018-07-03T12:53:11.350Z,99968
2018-07-03T12:54:13.066Z,101376
2018-07-03T12:55:14.737Z,99584
2018-07-03T12:56:16.425Z,98336
2018-07-03T12:57:18.109Z,96992
2018-07-03T12:58:19.822Z,98080
2018-07-03T12:59:21.475Z,99040
2018-07-03T13:00:23.204Z,96256
2018-07-03T13:01:24.898Z,98464
2018-07-03T13:02:26.625Z,105152
2018-07-03T13:03:28.262Z,106816
2018-07-03T13:04:29.951Z,108064
2018-07-03T13:05:31.640Z,112288
2018-07-03T13:06:33.326Z,114368
2018-07-03T13:07:35.015Z,115744
2018-07-03T13:08:36.698Z,114624
2018-07-03T13:09:38.380Z,110912
2018-07-03T13:10:40.062Z,108288
2018-07-03T13:11:41.742Z,107936
2018-07-03T13:12:43.458Z,110304
2018-07-03T13:13:45.158Z,111136
2018-07-03T13:14:46.835Z,112096
2018-07-03T13:15:48.540Z,115968
2018-07-03T13:16:50.249Z,120448
2018-07-03T13:17:51.939Z,121312
2018-07-03T13:18:53.613Z,117376
2018-07-03T13:19:55.290Z,118816
2018-07-03T13:20:56.988Z,121120
2018-07-03T13:21:58.649Z,117792
2018-07-03T13:23:00.350Z,118080
2018-07-03T13:24:02.034Z,122752
2018-07-03T13:25:03.734Z,128096
2018-07-03T13:26:05.509Z,130112
2018-07-03T13:27:07.204Z,126720
2018-07-03T13:28:08.879Z,127808
2018-07-03T13:29:10.564Z,129952
2018-07-03T13:30:12.250Z,127424
2018-07-03T13:31:13.925Z,128448
2018-07-03T13:32:15.610Z,123680
2018-07-03T13:33:17.290Z,118912
2018-07-03T13:34:18.973Z,124288
2018-07-03T13:35:20.675Z,124416
2018-07-03T13:36:23.336Z,128704
2018-07-03T13:37:24.965Z,115040
2018-07-03T13:38:27.254Z,67488
2018-07-03T13:39:29.640Z,45728
2018-07-03T13:40:31.319Z,43392
2018-07-03T13:41:33.873Z,43040
2018-07-03T13:42:39.430Z,42432
2018-07-03T13:43:41.127Z,42272
2018-07-03T13:44:42.871Z,42336
2018-07-03T13:45:44.550Z,42272
2018-07-03T13:46:47.032Z,42848
2018-07-03T13:47:49.487Z,43200
2018-07-03T13:48:51.179Z,43616
2018-07-03T13:49:53.496Z,43776
2018-07-03T13:50:55.194Z,44320
2018-07-03T13:51:56.882Z,45024
2018-07-03T13:52:58.559Z,44960
2018-07-03T13:54:00.250Z,45120
2018-07-03T13:55:01.933Z,45344
2018-07-03T14:01:01.378Z,45568
2018-07-03T14:02:03.060Z,46336
2018-07-03T14:03:04.757Z,47296
2018-07-03T14:04:06.447Z,48320
2018-07-03T14:05:08.131Z,49440
2018-07-03T14:06:09.808Z,52960
2018-07-03T14:07:11.500Z,65568
2018-07-03T14:08:13.168Z,84480
2018-07-03T14:09:14.851Z,91904
2018-07-03T14:10:16.528Z,81216
2018-07-03T14:11:18.214Z,69856
2018-07-03T14:12:19.893Z,68768
2018-07-03T14:13:21.612Z,75936
2018-07-03T14:14:23.384Z,75200
2018-07-03T14:15:25.008Z,68928
2018-07-03T14:16:26.699Z,65440
2018-07-03T14:17:28.384Z,69120
2018-07-03T14:18:30.091Z,72320
2018-07-03T14:19:31.763Z,73152
2018-07-03T14:20:33.448Z,72800
2018-07-03T14:21:35.129Z,66656
2018-07-03T14:22:36.826Z,56960
2018-07-03T14:23:38.509Z,52896
2018-07-03T14:24:40.190Z,53344
2018-07-03T14:25:41.924Z,51456
2018-07-03T14:26:43.608Z,48224
2018-07-03T14:27:45.289Z,47264
2018-07-03T14:28:46.980Z,44480
2018-07-03T14:29:48.712Z,47264
2018-07-03T14:30:50.392Z,49632
2018-07-03T14:31:52.064Z,46496
2018-07-03T14:32:53.755Z,46176
2018-07-03T14:33:55.443Z,47296
2018-07-03T14:34:57.124Z,47936
2018-07-03T14:35:58.840Z,49280
2018-07-03T14:37:00.522Z,48832
2018-07-03T14:38:02.197Z,48768
2018-07-03T14:39:03.913Z,47936
2018-07-03T14:40:05.622Z,47456
2018-07-03T14:41:07.312Z,48416
2018-07-03T14:42:08.996Z,55552
2018-07-03T14:43:10.669Z,55392
2018-07-03T14:44:12.363Z,51808
2018-07-03T14:45:14.048Z,51264
2018-07-03T14:46:15.741Z,53376
2018-07-03T14:47:17.457Z,59136
2018-07-03T14:48:19.121Z,60512
2018-07-03T14:49:20.809Z,62784
2018-07-03T14:50:22.492Z,67520
2018-07-03T14:51:24.175Z,77536
2018-07-03T14:52:25.883Z,88416
2018-07-03T14:53:27.557Z,102304
2018-07-03T14:54:29.251Z,119776
2018-07-03T14:55:30.938Z,145408
2018-07-03T14:56:32.622Z,139968
2018-07-03T14:57:34.308Z,115136
2018-07-03T14:58:35.999Z,107936
2018-07-03T14:59:37.661Z,97952
2018-07-03T15:00:39.335Z,78528
2018-07-03T15:01:41.015Z,66240
2018-07-03T15:02:42.695Z,64704
2018-07-03T15:03:44.390Z,63040
2018-07-03T15:04:46.088Z,55488
2018-07-03T15:05:47.759Z,44224
2018-07-03T15:06:49.444Z,36576
2018-07-03T15:07:51.122Z,29568
2018-07-03T15:08:52.799Z,24768
2018-07-03T15:09:54.483Z,21280
2018-07-03T15:10:56.192Z,19552
2018-07-03T15:11:57.858Z,17968
2018-07-03T15:12:59.565Z,17156
2018-07-03T15:14:01.246Z,16468
2018-07-03T15:15:02.912Z,16064
2018-07-03T15:16:04.598Z,15592
2018-07-03T15:17:06.320Z,14628
2018-07-03T15:18:08.013Z,14544
2018-07-03T15:19:09.691Z,13948
2018-07-03T15:20:11.366Z,14068
2018-07-03T15:21:13.114Z,13876
2018-07-03T15:22:14.796Z,13632
2018-07-03T15:23:16.477Z,13464
2018-07-03T15:24:18.176Z,13212
2018-07-03T15:25:19.856Z,13132
2018-07-03T15:26:21.543Z,12984
2018-07-03T15:27:23.241Z,12868
2018-07-03T15:28:24.936Z,13236
2018-07-03T15:29:26.606Z,12816
2018-07-03T15:30:28.280Z,12692
2018-07-03T15:31:29.964Z,12656
2018-07-03T15:32:31.645Z,12724
2018-07-03T15:33:33.332Z,12008
2018-07-03T15:34:35.019Z,12564
2018-07-03T15:35:36.695Z,11996
2018-07-03T15:36:38.386Z,11936
2018-07-03T15:37:40.059Z,11904
2018-07-03T15:38:41.739Z,12292
2018-07-03T15:39:43.425Z,11816
2018-07-03T15:40:45.115Z,11672
2018-07-03T15:41:46.779Z,11688
2018-07-03T15:42:48.563Z,12296
2018-07-03T15:43:50.840Z,11960
2018-07-03T15:44:52.513Z,11920
2018-07-03T15:45:54.203Z,12072
2018-07-03T15:46:55.873Z,11760
2018-07-03T15:47:57.550Z,11860
2018-07-03T15:48:59.235Z,11604
2018-07-03T15:50:00.910Z,11824
2018-07-03T15:51:02.592Z,11640
2018-07-03T15:52:04.271Z,11368
2018-07-03T15:53:05.977Z,11084
2018-07-03T15:54:07.650Z,11236
2018-07-03T15:55:09.334Z,11176
2018-07-03T15:56:11.035Z,11192
2018-07-03T15:57:12.698Z,11124
2018-07-03T15:58:14.384Z,11372
2018-07-03T15:59:16.082Z,10764
2018-07-03T16:00:17.761Z,11492
2018-07-03T16:01:19.456Z,10964
2018-07-03T16:02:21.143Z,10688
2018-07-03T16:03:22.804Z,10252
2018-07-03T16:04:24.475Z,10448
2018-07-03T16:05:26.153Z,10112
2018-07-03T16:06:27.840Z,9764
2018-07-03T16:07:29.509Z,9836
2018-07-03T16:08:31.191Z,9708
2018-07-03T16:09:32.896Z,9648
2018-07-03T16:10:34.589Z,9956
2018-07-03T16:11:36.270Z,9380
2018-07-03T16:12:37.955Z,9312
2018-07-03T16:13:39.624Z,9220
2018-07-03T16:14:41.296Z,9144
2018-07-03T16:15:42.979Z,9036
2018-07-03T16:16:44.646Z,8936
2018-07-03T16:17:46.358Z,8808
2018-07-03T16:18:48.005Z,8828
2018-07-03T16:19:49.680Z,8772
2018-07-03T16:20:51.356Z,8720
2018-07-03T16:21:53.025Z,8620
2018-07-03T16:22:54.696Z,8640
2018-07-03T16:23:56.385Z,8400
2018-07-03T16:24:58.136Z,8588
2018-07-03T16:25:59.698Z,8540
2018-07-03T16:27:01.378Z,8424
2018-07-03T16:28:03.077Z,8424
2018-07-03T16:29:04.754Z,8420
2018-07-03T16:30:06.458Z,8628
2018-07-03T16:31:08.128Z,8592
2018-07-03T16:32:09.812Z,8564
2018-07-03T16:33:11.501Z,8472
2018-07-03T16:34:13.168Z,8340
2018-07-03T16:35:14.846Z,8240
2018-07-03T16:36:16.534Z,8116
2018-07-03T16:37:18.233Z,8032
2018-07-03T16:38:19.926Z,7972
2018-07-03T16:39:21.608Z,7900
2018-07-03T16:40:23.313Z,7820
2018-07-03T16:41:25.009Z,7800
2018-07-03T16:42:26.688Z,7784
2018-07-03T16:43:28.361Z,7704
2018-07-03T16:44:30.028Z,7656
2018-07-03T16:45:31.738Z,7560
2018-07-03T16:46:33.362Z,7456
2018-07-03T16:47:35.026Z,7284
2018-07-03T16:48:36.696Z,7260
2018-07-03T16:49:38.380Z,6980
2018-07-03T16:50:40.065Z,7652
2018-07-03T16:51:41.734Z,7036
2018-07-03T16:52:43.423Z,7096
2018-07-03T16:53:45.096Z,6816
2018-07-03T16:54:46.768Z,6692
2018-07-03T16:55:48.442Z,6740
2018-07-03T16:56:50.124Z,6700
2018-07-03T16:57:51.818Z,7032
2018-07-03T16:58:53.491Z,6840
2018-07-03T16:59:55.176Z,6660
2018-07-03T17:00:56.859Z,6424
2018-07-03T17:01:58.536Z,5796
2018-07-03T17:03:00.210Z,4812
2018-07-03T17:04:01.890Z,5104
2018-07-03T17:05:03.584Z,4520
2018-07-03T17:06:05.276Z,4664
2018-07-03T17:07:06.970Z,4764
2018-07-03T17:08:08.633Z,4640
2018-07-03T17:09:10.300Z,4592
2018-07-03T17:10:12.007Z,4532
2018-07-03T17:11:13.689Z,4528
2018-07-03T17:12:15.381Z,4516
2018-07-03T17:13:17.075Z,4476
2018-07-03T17:14:18.755Z,4480
2018-07-03T17:15:20.433Z,4408
2018-07-03T17:16:22.115Z,4404
2018-07-03T17:17:23.781Z,4356
2018-07-03T17:18:25.461Z,4300
2018-07-03T17:19:27.138Z,4288
2018-07-03T17:20:28.867Z,4288
2018-07-03T17:21:32.123Z,4232
2018-07-03T17:22:33.800Z,4212
2018-07-03T17:23:35.456Z,4304
2018-07-03T17:24:37.123Z,4200
2018-07-03T17:25:38.829Z,4168
2018-07-03T17:26:40.465Z,4140
2018-07-03T17:27:42.189Z,4148
2018-07-03T17:28:43.849Z,4076
2018-07-03T17:29:45.532Z,4172
2018-07-03T17:30:47.200Z,4080
2018-07-03T17:31:48.868Z,4068
2018-07-03T17:32:50.579Z,4064
2018-07-03T17:33:52.235Z,4016
2018-07-03T17:34:53.882Z,4028
2018-07-03T17:35:55.561Z,4040
2018-07-03T17:36:57.860Z,4060
2018-07-03T17:37:59.523Z,3964
2018-07-03T17:39:01.188Z,3984
2018-07-03T17:40:02.850Z,3940
2018-07-03T17:41:04.553Z,3988